Time;durP1;ratioP1;P1;durP2;ratioP2;P2;SDS_P1;SDS_P2;PMS_P1;PMS_P2;Temp;Humidity;BMP_temperature;BMP_pressure;BME280_temperature;BME280_humidity;BME280_pressure;Samples;Min_cycle;Max_cycle;Signal;HPM_P1;HPM_P2
2024/01/19 00:01:39;;;;;;;22.90;10.70;;;;;;;13.45;58.40;99979.13;106466;1262;22550;-51
2024/01/19 00:04:06;;;;;;;24.80;12.00;;;;;;;13.44;58.32;99980.20;106569;1261;25476;-52
2024/01/19 00:06:33;;;;;;;35.50;13.90;;;;;;;13.44;58.32;99980.73;106542;1268;25357;-52
2024/01/19 00:09:00;;;;;;;37.80;14.50;;;;;;;13.43;58.21;99985.66;106558;1265;23397;-52
2024/01/19 00:11:27;;;;;;;37.80;15.10;;;;;;;13.42;57.83;99979.63;106539;1261;25183;-53
2024/01/19 00:13:54;;;;;;;38.60;14.20;;;;;;;13.39;57.54;99975.75;106573;1261;24210;-52
2024/01/19 00:16:21;;;;;;;34.60;15.60;;;;;;;13.35;57.31;99976.98;106483;1263;25325;-53
2024/01/19 00:18:48;;;;;;;40.10;15.40;;;;;;;13.31;57.26;99976.28;106557;1272;25328;-53
2024/01/19 00:21:15;;;;;;;27.50;12.60;;;;;;;13.28;56.97;99968.23;106713;1269;25405;-51
2024/01/19 00:23:42;;;;;;;31.60;13.90;;;;;;;13.25;57.02;99965.27;106642;1262;25339;-54
2024/01/19 00:26:10;;;;;;;23.80;12.20;;;;;;;13.22;57.11;99962.27;106804;1262;25328;-52
2024/01/19 00:28:37;;;;;;;26.10;12.80;;;;;;;13.20;57.27;99963.21;106669;1262;25449;-52
2024/01/19 00:31:05;;;;;;;28.80;13.00;;;;;;;13.19;57.37;99964.13;106431;1264;25342;-52
2024/01/19 00:33:32;;;;;;;23.20;11.80;;;;;;;13.18;57.41;99962.61;106743;1260;25488;-52
2024/01/19 00:35:59;;;;;;;19.80;12.30;;;;;;;13.17;57.37;99959.33;106489;1265;25357;-52
2024/01/19 00:38:26;;;;;;;21.30;11.80;;;;;;;13.16;57.39;99955.55;106544;1268;25392;-52
2024/01/19 00:40:53;;;;;;;19.10;11.50;;;;;;;13.15;57.44;99954.40;106734;1269;25335;-52
2024/01/19 00:43:21;;;;;;;20.20;10.90;;;;;;;13.14;57.41;99956.91;106668;1262;25533;-52
2024/01/19 00:45:48;;;;;;;17.90;11.00;;;;;;;13.12;57.45;99960.27;106684;1259;25341;-52
2024/01/19 00:48:15;;;;;;;19.10;10.60;;;;;;;13.11;57.59;99960.83;106818;1263;25419;-51
2024/01/19 00:50:42;;;;;;;29.20;12.00;;;;;;;13.10;57.51;99957.39;106085;1272;1003648;-51
2024/01/19 00:53:09;;;;;;;48.80;16.90;;;;;;;13.08;57.60;99957.80;106698;1260;25456;-52
2024/01/19 00:55:36;;;;;;;50.00;16.70;;;;;;;13.08;57.51;99958.53;106745;1268;25488;-52
2024/01/19 00:58:03;;;;;;;46.50;16.40;;;;;;;13.05;57.48;99956.52;106857;1259;23876;-52
2024/01/19 01:00:30;;;;;;;46.20;16.70;;;;;;;13.04;57.37;99959.35;106651;1263;25591;-52
2024/01/19 01:02:57;;;;;;;51.40;16.50;;;;;;;13.02;57.38;99962.02;106777;1262;25334;-52
2024/01/19 01:05:24;;;;;;;45.90;15.70;;;;;;;13.00;57.20;99963.70;106436;1271;25341;-52
2024/01/19 01:07:52;;;;;;;46.40;16.70;;;;;;;12.97;57.11;99961.38;106483;1265;25338;-52
2024/01/19 01:10:19;;;;;;;40.60;13.90;;;;;;;12.94;57.18;99956.50;105687;1266;1002897;-52
2024/01/19 01:12:46;;;;;;;33.30;13.20;;;;;;;12.91;57.44;99952.64;106779;1259;25325;-52
2024/01/19 01:15:12;;;;;;;40.10;15.00;;;;;;;12.89;57.72;99955.85;106525;1268;25367;-54
2024/01/19 01:17:41;;;;;;;37.80;15.00;;;;;;;12.89;57.71;99956.38;106563;1264;22528;-52
2024/01/19 01:20:10;;;;;;;39.70;12.90;;;;;;;12.87;57.73;99955.38;106487;1263;25338;-52
2024/01/19 01:22:37;;;;;;;31.10;12.00;;;;;;;12.86;57.73;99957.73;106819;1260;22530;-52
2024/01/19 01:25:04;;;;;;;30.80;12.10;;;;;;;12.84;57.71;99957.97;106668;1264;25328;-52
2024/01/19 01:27:32;;;;;;;27.70;13.60;;;;;;;12.82;57.76;99959.45;106711;1259;25338;-52
2024/01/19 01:29:59;;;;;;;27.50;11.10;;;;;;;12.81;57.81;99960.55;106482;1265;25325;-52
2024/01/19 01:32:26;;;;;;;22.60;10.70;;;;;;;12.79;57.83;99965.68;105733;1265;1003009;-52
2024/01/19 01:34:53;;;;;;;23.70;10.70;;;;;;;12.77;57.89;99969.05;106774;1262;25415;-52
2024/01/19 01:37:20;;;;;;;25.60;10.20;;;;;;;12.76;57.82;99964.44;106509;1263;25339;-52
2024/01/19 01:39:47;;;;;;;23.40;9.90;;;;;;;12.74;57.85;99962.23;106600;1262;25328;-52
2024/01/19 01:42:14;;;;;;;22.00;9.70;;;;;;;12.73;57.83;99963.34;106762;1262;25406;-52
2024/01/19 01:44:41;;;;;;;29.70;11.90;;;;;;;12.72;57.85;99967.03;106682;1259;23267;-52
2024/01/19 01:47:08;;;;;;;36.30;13.00;;;;;;;12.70;57.99;99964.33;106697;1262;22534;-52
2024/01/19 01:49:35;;;;;;;35.30;11.00;;;;;;;12.70;58.05;99962.61;106776;1261;25445;-52
2024/01/19 01:52:03;;;;;;;20.50;10.20;;;;;;;12.69;58.14;99950.65;106794;1260;25338;-52
2024/01/19 01:54:30;;;;;;;24.70;11.00;;;;;;;12.69;58.35;99944.73;106787;1260;24246;-52
2024/01/19 01:56:57;;;;;;;34.50;12.60;;;;;;;12.69;58.51;99940.21;106712;1268;25326;-52
2024/01/19 01:59:24;;;;;;;41.10;13.40;;;;;;;12.69;58.76;99931.33;106775;1264;25328;-51
2024/01/19 02:01:51;;;;;;;45.20;13.10;;;;;;;12.70;58.90;99923.98;106752;1262;25341;-52
2024/01/19 02:04:18;;;;;;;36.90;12.80;;;;;;;12.69;59.01;99922.77;106478;1273;25344;-51
2024/01/19 02:06:45;;;;;;;34.00;12.10;;;;;;;12.70;59.17;99923.27;106668;1262;25449;-51
2024/01/19 02:09:13;;;;;;;34.30;11.30;;;;;;;12.71;59.14;99924.27;106476;1265;24215;-51
2024/01/19 02:11:40;;;;;;;26.00;10.80;;;;;;;12.72;59.16;99924.56;106725;1259;25339;-51
2024/01/19 02:14:09;;;;;;;23.40;10.20;;;;;;;12.73;59.12;99925.41;106756;1262;25453;-51
2024/01/19 02:16:37;;;;;;;22.50;10.00;;;;;;;12.73;59.23;99927.84;106749;1262;25335;-51
2024/01/19 02:19:04;;;;;;;33.90;11.20;;;;;;;12.72;59.24;99936.75;106743;1268;25488;-51
2024/01/19 02:21:31;;;;;;;31.10;12.00;;;;;;;12.72;59.24;99942.67;106679;1258;25398;-51
2024/01/19 02:24:02;;;;;;;29.50;11.90;;;;;;;12.72;59.30;99943.88;106348;1265;25364;-51
2024/01/19 02:26:34;;;;;;;32.70;10.40;;;;;;;12.72;59.26;99943.70;106848;1256;24743;-52
2024/01/19 02:29:01;;;;;;;30.00;10.80;;;;;;;12.73;59.21;99944.55;106765;1259;24360;-52
2024/01/19 02:31:28;;;;;;;30.60;11.90;;;;;;;12.74;59.30;99944.13;106779;1260;25457;-52
2024/01/19 02:33:55;;;;;;;28.80;12.50;;;;;;;12.76;59.35;99943.02;106745;1257;25364;-51
2024/01/19 02:36:22;;;;;;;35.20;13.10;;;;;;;12.78;59.21;99945.20;106529;1273;25495;-51
2024/01/19 02:38:49;;;;;;;36.10;13.70;;;;;;;12.78;59.15;99939.63;106432;1272;25367;-52
2024/01/19 02:41:16;;;;;;;34.50;11.90;;;;;;;12.78;59.13;99935.94;106693;1257;24250;-51
2024/01/19 02:43:43;;;;;;;28.90;11.70;;;;;;;12.79;59.09;99931.77;106884;1262;25404;-52
2024/01/19 02:46:13;;;;;;;33.80;13.00;;;;;;;12.79;58.99;99931.92;106658;1262;24218;-51
2024/01/19 02:48:39;;;;;;;28.10;11.60;;;;;;;12.78;58.90;99934.91;106697;1262;22530;-51
2024/01/19 02:51:07;;;;;;;22.30;9.90;;;;;;;12.77;58.83;99935.83;106758;1262;25418;-51
2024/01/19 02:53:33;;;;;;;28.50;11.60;;;;;;;12.76;58.90;99942.30;106856;1261;25454;-52
2024/01/19 02:56:01;;;;;;;28.60;11.70;;;;;;;12.73;58.89;99942.61;106876;1262;25366;-53
2024/01/19 02:58:28;;;;;;;30.80;12.10;;;;;;;12.72;59.01;99948.41;106780;1262;25492;-52
2024/01/19 03:00:55;;;;;;;28.90;11.50;;;;;;;12.71;59.14;99946.55;106747;1262;25342;-53
2024/01/19 03:03:23;;;;;;;41.30;13.10;;;;;;;12.70;59.22;99940.66;106100;1262;1003646;-52
2024/01/19 03:05:50;;;;;;;36.30;11.70;;;;;;;12.70;59.24;99945.91;106393;1279;25360;-53
2024/01/19 03:08:18;;;;;;;35.60;11.30;;;;;;;12.69;59.17;99944.38;106744;1262;25357;-54
2024/01/19 03:10:45;;;;;;;36.70;12.50;;;;;;;12.68;59.11;99944.77;106691;1278;25335;-54
2024/01/19 03:13:12;;;;;;;26.50;10.90;;;;;;;12.66;58.97;99946.23;106802;1260;25344;-54
2024/01/19 03:15:39;;;;;;;34.80;12.00;;;;;;;12.65;58.98;99942.11;106744;1260;25386;-53
2024/01/19 03:18:06;;;;;;;36.50;12.10;;;;;;;12.64;58.99;99944.58;106444;1268;26503;-52
2024/01/19 03:20:33;;;;;;;23.80;9.80;;;;;;;12.63;59.03;99949.48;106522;1262;25488;-53
2024/01/19 03:23:00;;;;;;;29.50;10.60;;;;;;;12.62;58.95;99952.67;106375;1265;24192;-53
2024/01/19 03:25:27;;;;;;;28.30;9.00;;;;;;;12.61;58.97;99958.78;106555;1262;25338;-52
2024/01/19 03:27:54;;;;;;;31.20;10.70;;;;;;;12.61;58.95;99958.64;106522;1264;24191;-56
2024/01/19 03:30:21;;;;;;;30.20;9.80;;;;;;;12.60;58.92;99956.41;106468;1263;25318;-54
2024/01/19 03:32:48;;;;;;;24.90;10.10;;;;;;;12.58;58.97;99951.80;105709;1262;1002995;-52
2024/01/19 03:35:16;;;;;;;28.40;9.60;;;;;;;12.57;58.94;99947.65;106388;1259;22584;-53
2024/01/19 03:37:43;;;;;;;24.70;9.10;;;;;;;12.57;58.94;99949.44;106723;1262;25499;-53
2024/01/19 03:40:10;;;;;;;28.00;9.10;;;;;;;12.56;58.93;99946.86;106743;1262;25366;-54
2024/01/19 03:42:37;;;;;;;28.30;10.00;;;;;;;12.54;58.96;99943.98;106734;1261;25487;-52
2024/01/19 03:45:05;;;;;;;29.70;9.10;;;;;;;12.53;58.97;99940.70;106733;1262;25459;-53
2024/01/19 03:47:33;;;;;;;25.70;8.90;;;;;;;12.52;58.93;99945.09;106483;1264;24230;-51
2024/01/19 03:50:02;;;;;;;21.40;8.30;;;;;;;12.50;58.95;99948.83;106778;1266;25363;-52
2024/01/19 03:52:29;;;;;;;30.30;9.20;;;;;;;12.48;59.05;99949.26;106807;1263;25337;-52
2024/01/19 03:54:56;;;;;;;26.40;10.50;;;;;;;12.47;59.23;99955.60;106792;1260;24268;-52
2024/01/19 03:57:23;;;;;;;25.10;9.60;;;;;;;12.46;59.44;99952.33;106651;1262;25328;-53
2024/01/19 03:59:50;;;;;;;29.50;11.70;;;;;;;12.46;59.49;99951.64;106508;1279;22533;-52
2024/01/19 04:02:17;;;;;;;27.30;11.40;;;;;;;12.46;59.58;99950.59;106430;1274;25408;-52
2024/01/19 04:04:44;;;;;;;26.40;11.70;;;;;;;12.46;59.68;99951.46;106675;1263;25433;-52
2024/01/19 04:07:12;;;;;;;20.90;9.80;;;;;;;12.45;59.82;99954.61;106687;1270;25488;-52
2024/01/19 04:09:40;;;;;;;25.10;10.50;;;;;;;12.45;59.93;99953.42;106735;1257;25356;-52
2024/01/19 04:12:13;;;;;;;26.30;11.10;;;;;;;12.45;60.06;99946.61;106802;1260;26598;-52
2024/01/19 04:15:00;;;;;;;28.40;10.00;;;;;;;12.45;60.17;99951.82;106408;1276;25406;-52
2024/01/19 04:17:27;;;;;;;25.80;9.70;;;;;;;12.47;60.16;99950.73;106347;1267;25492;-52
2024/01/19 04:19:54;;;;;;;30.60;10.30;;;;;;;12.48;60.23;99948.07;105964;1269;25401;-52
2024/01/19 04:22:21;;;;;;;24.00;9.40;;;;;;;12.49;60.31;99946.97;106318;1269;25364;-52
2024/01/19 04:24:48;;;;;;;24.20;10.40;;;;;;;12.51;60.33;99946.75;105451;1271;566716;-52
2024/01/19 04:27:15;;;;;;;27.70;9.10;;;;;;;12.51;60.18;99936.59;106163;1271;25364;-51
2024/01/19 04:29:42;;;;;;;29.30;9.60;;;;;;;12.52;60.25;99939.71;106495;1265;25467;-52
2024/01/19 04:32:09;;;;;;;23.80;10.30;;;;;;;12.52;60.29;99932.23;106480;1265;25376;-52
2024/01/19 04:34:36;;;;;;;23.90;10.00;;;;;;;12.53;60.36;99936.02;106712;1265;25261;-52
2024/01/19 04:37:03;;;;;;;25.00;10.40;;;;;;;12.53;60.35;99933.56;106535;1273;25340;-52
2024/01/19 04:39:30;;;;;;;28.30;10.10;;;;;;;12.54;60.42;99941.55;106684;1273;24204;-52
2024/01/19 04:41:57;;;;;;;33.60;12.10;;;;;;;12.54;60.36;99942.73;106078;1262;1015347;-52
2024/01/19 04:44:24;;;;;;;33.00;10.90;;;;;;;12.55;60.34;99943.23;106761;1259;25328;-52
2024/01/19 04:46:51;;;;;;;33.00;10.60;;;;;;;12.55;60.36;99948.44;106728;1266;25356;-53
2024/01/19 04:49:19;;;;;;;22.40;10.40;;;;;;;12.55;60.58;99946.38;105971;1262;1002925;-53
2024/01/19 04:51:46;;;;;;;22.80;9.70;;;;;;;12.55;60.59;99952.47;106717;1269;25356;-53
2024/01/19 04:54:12;;;;;;;22.60;8.90;;;;;;;12.55;60.70;99952.48;106528;1265;25491;-53
2024/01/19 04:56:40;;;;;;;26.50;10.10;;;;;;;12.55;60.73;99960.27;106714;1266;25328;-53
2024/01/19 04:59:09;;;;;;;22.90;8.90;;;;;;;12.55;60.80;99960.79;106730;1268;25325;-53
2024/01/19 05:01:36;;;;;;;25.10;9.50;;;;;;;12.57;60.77;99966.47;106453;1265;24214;-53
2024/01/19 05:04:03;;;;;;;25.40;10.60;;;;;;;12.58;60.81;99970.77;106337;1266;25468;-54
2024/01/19 05:06:30;;;;;;;23.90;9.70;;;;;;;12.59;60.87;99974.22;106706;1276;25268;-53
2024/01/19 05:08:57;;;;;;;23.80;10.60;;;;;;;12.61;60.96;99975.85;106387;1279;25402;-53
2024/01/19 05:11:24;;;;;;;22.10;11.40;;;;;;;12.64;60.84;99979.20;106824;1262;24227;-53
2024/01/19 05:13:51;;;;;;;23.20;11.40;;;;;;;12.66;60.80;99978.96;106815;1263;25353;-54
2024/01/19 05:16:18;;;;;;;23.80;10.90;;;;;;;12.67;60.79;99980.47;106758;1266;25347;-53
2024/01/19 05:18:45;;;;;;;31.00;11.10;;;;;;;12.69;60.85;99984.23;106710;1263;25367;-53
2024/01/19 05:21:12;;;;;;;19.50;10.70;;;;;;;12.70;60.85;99987.99;106602;1262;25452;-53
2024/01/19 05:23:39;;;;;;;25.10;9.80;;;;;;;12.72;61.00;99991.91;106729;1263;25343;-53
2024/01/19 05:26:08;;;;;;;21.20;10.70;;;;;;;12.75;60.97;99999.29;106789;1262;25419;-53
2024/01/19 05:28:36;;;;;;;24.50;10.90;;;;;;;12.76;60.89;100000.77;106804;1262;25367;-54
2024/01/19 05:31:03;;;;;;;25.20;11.40;;;;;;;12.77;60.96;99995.02;106831;1269;22533;-52
2024/01/19 05:33:31;;;;;;;34.50;11.80;;;;;;;12.78;61.02;99993.91;106753;1260;25360;-53
2024/01/19 05:36:02;;;;;;;22.70;10.60;;;;;;;12.79;60.99;99996.48;106861;1260;25338;-53
2024/01/19 05:38:30;;;;;;;20.50;10.00;;;;;;;12.81;60.94;100000.58;106758;1270;25421;-53
2024/01/19 05:41:01;;;;;;;19.70;9.20;;;;;;;12.83;60.79;100007.64;106310;1266;25372;-53
2024/01/19 05:43:28;;;;;;;17.20;9.40;;;;;;;12.83;60.60;100013.20;106660;1270;25579;-53
2024/01/19 05:45:55;;;;;;;23.20;9.80;;;;;;;12.84;60.66;100020.80;106813;1270;25488;-52
2024/01/19 05:48:22;;;;;;;12.90;9.30;;;;;;;12.85;60.53;100027.20;106328;1273;25442;-53
2024/01/19 05:50:50;;;;;;;14.10;9.00;;;;;;;12.86;60.35;100035.86;106500;1271;25468;-53
2024/01/19 05:53:17;;;;;;;14.00;9.10;;;;;;;12.87;60.12;100039.84;106760;1259;24194;-53
2024/01/19 05:55:44;;;;;;;14.30;9.90;;;;;;;12.87;59.79;100042.95;106490;1267;22638;-53
2024/01/19 05:58:10;;;;;;;10.80;8.30;;;;;;;12.85;59.64;100047.38;106431;1265;25366;-53
2024/01/19 06:00:37;;;;;;;13.30;9.30;;;;;;;12.86;59.47;100054.84;106795;1263;25356;-52
2024/01/19 06:03:04;;;;;;;13.70;9.40;;;;;;;12.86;59.37;100063.70;106793;1270;25555;-52
2024/01/19 06:05:34;;;;;;;14.60;10.10;;;;;;;12.86;59.15;100057.27;106708;1272;25484;-52
2024/01/19 06:08:01;;;;;;;10.50;9.20;;;;;;;12.86;58.94;100068.60;106725;1278;25372;-53
2024/01/19 06:10:29;;;;;;;11.70;9.70;;;;;;;12.86;58.89;100066.86;106754;1276;25405;-52
2024/01/19 06:12:56;;;;;;;11.70;9.60;;;;;;;12.85;58.75;100069.15;106815;1272;25315;-52
2024/01/19 06:15:23;;;;;;;13.00;10.60;;;;;;;12.85;58.60;100070.02;106827;1273;25486;-52
2024/01/19 06:17:50;;;;;;;15.00;10.30;;;;;;;12.87;58.52;100073.95;106762;1270;25353;-52
2024/01/19 06:20:17;;;;;;;10.80;9.50;;;;;;;12.89;58.40;100075.78;106712;1266;25346;-52
2024/01/19 06:22:45;;;;;;;14.00;11.10;;;;;;;12.91;58.32;100071.66;106785;1270;25346;-53
2024/01/19 06:25:14;;;;;;;12.50;10.60;;;;;;;12.97;58.33;100069.87;106703;1270;25379;-52
2024/01/19 06:27:41;;;;;;;11.30;9.30;;;;;;;13.04;58.05;100074.09;105984;1256;1002899;-52
2024/01/19 06:30:08;;;;;;;11.80;10.20;;;;;;;13.11;57.62;100072.11;106664;1263;25360;-53
2024/01/19 06:32:36;;;;;;;12.00;9.60;;;;;;;13.15;57.32;100070.73;106713;1262;25421;-52
2024/01/19 06:35:03;;;;;;;13.30;10.00;;;;;;;13.21;57.29;100078.30;106903;1273;25419;-52
2024/01/19 06:37:30;;;;;;;12.50;10.10;;;;;;;13.27;57.00;100079.73;106650;1263;25370;-53
2024/01/19 06:39:57;;;;;;;10.40;9.10;;;;;;;13.34;56.71;100087.27;106479;1266;24316;-51
2024/01/19 06:42:24;;;;;;;12.70;11.00;;;;;;;13.41;56.26;100087.84;106460;1270;25466;-52
2024/01/19 06:44:51;;;;;;;16.30;11.30;;;;;;;13.45;56.00;100086.64;106568;1265;25366;-52
2024/01/19 06:47:19;;;;;;;15.00;11.20;;;;;;;13.46;55.60;100091.10;106663;1270;25422;-52
2024/01/19 06:49:47;;;;;;;13.40;11.10;;;;;;;13.46;55.56;100089.04;106450;1269;25371;-51
2024/01/19 06:52:15;;;;;;;14.70;12.30;;;;;;;13.45;55.59;100089.39;106783;1269;25359;-52
2024/01/19 06:54:42;;;;;;;16.10;11.40;;;;;;;13.46;55.53;100086.23;106700;1258;25389;-54
2024/01/19 06:57:08;;;;;;;13.70;10.90;;;;;;;13.46;55.46;100084.64;106701;1262;25451;-52
2024/01/19 06:59:36;;;;;;;13.30;10.90;;;;;;;13.47;55.26;100090.73;106723;1270;24217;-51
2024/01/19 07:02:04;;;;;;;13.10;11.30;;;;;;;13.48;55.41;100094.16;106612;1267;25366;-52
2024/01/19 07:04:31;;;;;;;13.60;11.90;;;;;;;13.49;55.44;100094.64;106525;1273;25448;-52
2024/01/19 07:06:58;;;;;;;14.80;11.00;;;;;;;13.52;55.48;100093.09;106647;1276;23141;-51
2024/01/19 07:09:26;;;;;;;15.10;11.00;;;;;;;13.57;55.61;100088.52;106708;1273;25363;-51
2024/01/19 07:11:54;;;;;;;13.00;11.30;;;;;;;13.64;55.74;100093.95;106531;1272;25511;-52
2024/01/19 07:14:21;;;;;;;14.30;11.90;;;;;;;13.72;55.44;100098.80;106476;1276;24336;-51
2024/01/19 07:16:48;;;;;;;14.80;12.40;;;;;;;13.79;55.28;100095.02;106002;1276;25636;-52
2024/01/19 07:19:15;;;;;;;13.60;12.10;;;;;;;13.86;55.23;100089.80;106493;1279;25596;-51
2024/01/19 07:21:43;;;;;;;13.70;12.00;;;;;;;13.93;55.07;100090.54;106298;1269;25508;-51
2024/01/19 07:24:11;;;;;;;12.90;11.70;;;;;;;13.98;54.98;100087.02;106310;1279;25405;-51
2024/01/19 07:26:38;;;;;;;13.70;11.70;;;;;;;14.04;55.02;100091.09;106621;1263;22538;-51
2024/01/19 07:29:08;;;;;;;14.80;12.50;;;;;;;14.08;54.93;100100.63;106602;1278;26623;-51
2024/01/19 07:31:36;;;;;;;15.30;12.80;;;;;;;14.14;54.96;100104.02;106334;1268;24301;-51
2024/01/19 07:34:03;;;;;;;14.50;12.80;;;;;;;14.19;54.81;100114.25;106578;1275;25468;-51
2024/01/19 07:36:31;;;;;;;13.00;11.70;;;;;;;14.22;54.51;100113.43;106672;1263;22698;-51
2024/01/19 07:38:58;;;;;;;16.60;12.40;;;;;;;14.23;54.42;100100.11;106415;1276;25541;-51
2024/01/19 07:41:25;;;;;;;13.10;11.70;;;;;;;14.25;54.24;100104.38;106539;1272;22536;-51
2024/01/19 07:43:54;;;;;;;13.90;12.40;;;;;;;14.27;54.26;100099.94;106591;1276;25371;-53
2024/01/19 07:46:21;;;;;;;15.80;13.50;;;;;;;14.28;54.14;100099.36;106533;1278;25590;-51
2024/01/19 07:48:49;;;;;;;14.70;12.60;;;;;;;14.29;54.00;100111.55;106473;1279;25472;-53
2024/01/19 07:51:16;;;;;;;12.90;11.50;;;;;;;14.29;53.99;100112.25;106731;1270;25366;-53
2024/01/19 07:53:43;;;;;;;12.80;11.10;;;;;;;14.28;54.04;100103.71;106677;1272;25400;-50
2024/01/19 07:56:10;;;;;;;15.60;12.90;;;;;;;14.30;54.18;100107.30;106724;1272;25372;-51
2024/01/19 07:58:38;;;;;;;15.20;12.90;;;;;;;14.33;54.24;100116.78;106727;1266;25391;-53
2024/01/19 08:01:05;;;;;;;18.50;13.80;;;;;;;14.36;54.24;100117.84;106768;1279;25514;-53
2024/01/19 08:03:33;;;;;;;15.00;12.40;;;;;;;14.40;54.23;100126.88;106628;1278;22646;-52
2024/01/19 08:06:26;;;;;;;14.40;12.90;;;;;;;14.44;54.29;100146.08;106324;1278;25456;-51
2024/01/19 08:08:54;;;;;;;13.70;12.30;;;;;;;14.47;54.45;100154.48;106244;1277;22548;-51
2024/01/19 08:11:22;;;;;;;15.00;12.20;;;;;;;14.49;54.46;100160.83;106409;1275;25460;-51
2024/01/19 08:14:10;;;;;;;14.40;12.50;;;;;;;14.53;54.25;100174.09;106113;1286;22796;-51
2024/01/19 08:16:42;;;;;;;14.80;12.80;;;;;;;14.54;53.98;100175.63;106183;1280;24274;-51
2024/01/19 08:19:13;;;;;;;13.70;12.30;;;;;;;14.54;53.75;100168.27;105911;1280;22771;-53
2024/01/19 08:21:42;;;;;;;15.50;13.30;;;;;;;14.53;53.60;100180.56;106329;1279;22543;-52
2024/01/19 08:24:12;;;;;;;12.40;11.20;;;;;;;14.51;53.51;100175.59;105343;1275;1003771;-51
2024/01/19 08:26:39;;;;;;;14.30;12.80;;;;;;;14.49;53.54;100174.83;106291;1281;22727;-52
2024/01/19 08:29:07;;;;;;;13.90;12.00;;;;;;;14.46;53.57;100172.67;106424;1277;22809;-52
2024/01/19 08:31:35;;;;;;;15.10;12.80;;;;;;;14.45;53.43;100179.69;106242;1275;25346;-53
2024/01/19 08:34:03;;;;;;;14.10;12.60;;;;;;;14.44;53.47;100181.52;106396;1276;24262;-52
2024/01/19 08:36:32;;;;;;;15.20;13.40;;;;;;;14.42;53.52;100183.32;106322;1280;25334;-52
2024/01/19 08:39:00;;;;;;;13.80;12.40;;;;;;;14.41;53.50;100190.38;106547;1274;24369;-53
2024/01/19 08:41:28;;;;;;;14.50;13.00;;;;;;;14.41;53.59;100195.95;106449;1275;23226;-52
2024/01/19 08:43:56;;;;;;;15.90;13.90;;;;;;;14.41;53.56;100205.02;106359;1282;25498;-52
2024/01/19 08:46:24;;;;;;;15.90;12.90;;;;;;;14.42;53.52;100212.66;106844;1275;23926;-52
2024/01/19 08:48:51;;;;;;;15.90;14.10;;;;;;;14.43;53.58;100215.06;106827;1273;22534;-52
2024/01/19 08:51:23;;;;;;;16.00;13.60;;;;;;;14.43;53.70;100216.08;106756;1272;22546;-51
2024/01/19 08:53:51;;;;;;;16.70;14.40;;;;;;;14.44;53.84;100214.82;106748;1274;25320;-51
2024/01/19 08:56:39;;;;;;;17.60;14.40;;;;;;;14.48;53.96;100208.56;106279;1277;22720;-52
2024/01/19 08:59:18;;;;;;;21.20;17.30;;;;;;;14.51;53.91;100205.23;106278;1278;22557;-51
2024/01/19 09:01:46;;;;;;;17.00;13.70;;;;;;;14.54;53.93;100194.98;106139;1284;22544;-51
2024/01/19 09:04:13;;;;;;;16.00;14.40;;;;;;;14.57;54.00;100190.81;106312;1277;25467;-51
2024/01/19 09:06:41;;;;;;;16.20;14.50;;;;;;;14.61;53.92;100187.52;106361;1276;25391;-52
2024/01/19 09:09:12;;;;;;;16.90;14.80;;;;;;;14.65;53.90;100187.30;106479;1276;22504;-52
2024/01/19 09:11:39;;;;;;;15.40;13.80;;;;;;;14.67;53.99;100184.21;106312;1277;24022;-52
2024/01/19 09:14:09;;;;;;;16.40;13.80;;;;;;;14.70;53.86;100181.83;106407;1276;22556;-52
2024/01/19 09:16:44;;;;;;;15.30;13.70;;;;;;;14.73;53.89;100191.67;106827;1274;22657;-52
2024/01/19 09:19:11;;;;;;;16.20;14.40;;;;;;;14.75;53.81;100197.52;106708;1273;24212;-52
2024/01/19 09:21:39;;;;;;;14.70;13.10;;;;;;;14.76;53.73;100200.08;106714;1272;24410;-52
2024/01/19 09:24:06;;;;;;;14.20;12.70;;;;;;;14.76;53.78;100202.35;106779;1273;22547;-51
2024/01/19 09:26:34;;;;;;;14.90;13.40;;;;;;;14.77;53.85;100207.70;106823;1272;25360;-51
2024/01/19 09:29:01;;;;;;;14.00;12.40;;;;;;;14.80;53.98;100204.61;106785;1257;23284;-52
2024/01/19 09:31:29;;;;;;;15.50;12.50;;;;;;;14.84;54.04;100205.48;106750;1276;25367;-51
2024/01/19 09:33:56;;;;;;;13.80;12.40;;;;;;;14.88;54.11;100199.83;106798;1274;25366;-51
2024/01/19 09:36:24;;;;;;;12.40;10.80;;;;;;;14.94;54.09;100197.07;106784;1273;24231;-51
2024/01/19 09:38:51;;;;;;;12.00;10.80;;;;;;;15.02;54.03;100208.27;106749;1273;24255;-52
2024/01/19 09:41:38;;;;;;;12.10;10.70;;;;;;;15.09;53.96;100209.82;106618;1274;22648;-53
2024/01/19 09:44:07;;;;;;;13.60;11.00;;;;;;;15.16;53.76;100213.66;106770;1273;22549;-51
2024/01/19 09:46:52;;;;;;;12.30;11.00;;;;;;;15.23;53.79;100223.42;106696;1279;22541;-51
2024/01/19 09:49:23;;;;;;;13.90;10.20;;;;;;;15.31;53.73;100227.77;106710;1276;22641;-51
2024/01/19 09:52:25;;;;;;;12.50;10.10;;;;;;;15.38;53.63;100230.39;106719;1272;23642;-51
2024/01/19 09:54:54;;;;;;;17.80;10.10;;;;;;;15.47;53.41;100239.20;106773;1273;22543;-51
2024/01/19 09:57:21;;;;;;;11.30;10.00;;;;;;;15.54;53.01;100238.36;106393;1279;22539;-52
2024/01/19 09:59:48;;;;;;;11.30;8.90;;;;;;;15.58;52.51;100231.34;106796;1274;25351;-52
2024/01/19 10:02:16;;;;;;;11.00;9.80;;;;;;;15.57;51.84;100226.27;106776;1273;22524;-53
2024/01/19 10:04:43;;;;;;;11.10;9.90;;;;;;;15.51;51.38;100228.00;106409;1275;23871;-51
2024/01/19 10:07:29;;;;;;;11.60;10.50;;;;;;;15.43;51.08;100231.33;106647;1273;24250;-52
2024/01/19 10:10:11;;;;;;;13.10;9.50;;;;;;;15.30;50.66;100240.04;106912;1272;24401;-52
2024/01/19 10:12:39;;;;;;;11.40;10.00;;;;;;;15.21;50.62;100241.20;106746;1273;25487;-52
2024/01/19 10:15:11;;;;;;;10.60;9.20;;;;;;;15.12;50.62;100239.34;106325;1274;25338;-52
2024/01/19 10:17:38;;;;;;;10.80;9.70;;;;;;;15.06;50.47;100241.23;106582;1274;22551;-52
2024/01/19 10:20:09;;;;;;;12.50;9.70;;;;;;;14.97;49.97;100244.27;105968;1273;1002558;-52
2024/01/19 10:22:36;;;;;;;12.10;10.60;;;;;;;14.84;50.07;100244.05;106710;1276;25351;-52
2024/01/19 10:25:08;;;;;;;12.20;10.10;;;;;;;14.72;50.03;100256.46;106415;1273;22642;-52
2024/01/19 10:27:39;;;;;;;10.40;9.20;;;;;;;14.63;49.89;100268.39;106704;1273;22551;-51
2024/01/19 10:30:11;;;;;;;10.20;9.20;;;;;;;14.50;49.52;100266.92;106703;1273;25173;-52
2024/01/19 10:32:39;;;;;;;16.50;10.20;;;;;;;14.35;49.72;100268.11;106778;1272;24798;-52
2024/01/19 10:35:20;;;;;;;10.50;8.60;;;;;;;14.24;49.83;100268.93;105855;1263;1002954;-52
2024/01/19 10:37:48;;;;;;;10.70;9.30;;;;;;;14.12;49.59;100270.52;106745;1276;25306;-52
2024/01/19 10:40:21;;;;;;;10.70;9.60;;;;;;;13.98;49.84;100272.20;106586;1263;25328;-52
2024/01/19 10:42:56;;;;;;;11.70;8.90;;;;;;;13.86;50.09;100277.77;106894;1273;22553;-52
2024/01/19 10:45:25;;;;;;;11.00;9.90;;;;;;;13.76;49.99;100286.74;106757;1272;22555;-52
2024/01/19 10:47:53;;;;;;;11.00;9.70;;;;;;;13.64;49.91;100296.50;106664;1275;22536;-52
2024/01/19 10:50:25;;;;;;;10.00;9.00;;;;;;;13.51;50.27;100309.77;106745;1273;24519;-51
2024/01/19 10:52:53;;;;;;;13.50;9.50;;;;;;;13.41;50.68;100318.69;106799;1272;24291;-51
2024/01/19 10:55:30;;;;;;;11.30;10.10;;;;;;;13.34;51.08;100317.05;106753;1272;25458;-52
2024/01/19 10:58:11;;;;;;;11.30;9.90;;;;;;;13.32;51.49;100322.03;106380;1278;22543;-52
2024/01/19 11:00:39;;;;;;;12.10;10.40;;;;;;;13.31;51.68;100323.48;106762;1273;22644;-50
2024/01/19 11:03:06;;;;;;;12.00;10.70;;;;;;;13.30;51.97;100332.05;106786;1276;25478;-51
2024/01/19 11:05:36;;;;;;;12.50;10.40;;;;;;;13.28;52.09;100333.31;106415;1276;25353;-51
2024/01/19 11:08:04;;;;;;;11.90;10.50;;;;;;;13.26;51.98;100342.48;106398;1279;25353;-51
2024/01/19 11:10:31;;;;;;;14.70;10.30;;;;;;;13.24;51.88;100355.27;106356;1273;25358;-51
2024/01/19 11:13:01;;;;;;;12.20;11.00;;;;;;;13.21;51.38;100358.01;106335;1272;25391;-50